Time;durP1;ratioP1;P1;durP2;ratioP2;P2;SDS_P1;SDS_P2;PMS_P1;PMS_P2;Temp;Humidity;BMP_temperature;BMP_pressure;BME280_temperature;BME280_humidity;BME280_pressure;Samples;Min_cycle;Max_cycle;Signal;HPM_P1;HPM_P2
2023/11/23 00:00:15;;;;;;;19.38;6.30;;;5.80;99.90;;;;;;5019215;28;20477;-65
2023/11/23 00:02:41;;;;;;;20.85;6.63;;;5.70;99.90;;;;;;5025469;28;20030;-66
2023/11/23 00:05:08;;;;;;;16.73;6.60;;;5.80;99.90;;;;;;5025239;28;20068;-67
2023/11/23 00:07:34;;;;;;;18.23;7.32;;;5.70;99.90;;;;;;5035767;28;20032;-67
2023/11/23 00:10:00;;;;;;;16.92;7.45;;;5.70;99.90;;;;;;5021858;28;20564;-67
2023/11/23 00:12:26;;;;;;;16.10;6.95;;;5.80;99.90;;;;;;5022983;28;20133;-67
2023/11/23 00:14:51;;;;;;;14.75;6.00;;;5.80;99.90;;;;;;5023034;28;20033;-67
2023/11/23 00:17:18;;;;;;;23.05;6.85;;;5.80;99.90;;;;;;5021112;28;20453;-67
2023/11/23 00:19:46;;;;;;;19.10;6.32;;;5.80;99.90;;;;;;5024086;28;20075;-67
2023/11/23 00:22:12;;;;;;;20.83;7.05;;;5.70;99.90;;;;;;5020392;28;20516;-67
2023/11/23 00:24:38;;;;;;;19.17;7.63;;;5.70;99.90;;;;;;5023325;28;20045;-67
2023/11/23 00:27:04;;;;;;;16.42;6.70;;;5.70;99.90;;;;;;5022819;28;20022;-67
2023/11/23 00:29:30;;;;;;;18.60;8.00;;;5.70;99.90;;;;;;5019675;28;20030;-67
2023/11/23 00:31:57;;;;;;;12.15;5.10;;;5.70;99.90;;;;;;5024061;28;20043;-67
2023/11/23 00:34:25;;;;;;;19.33;6.63;;;5.60;99.90;;;;;;5020459;28;20037;-67
2023/11/23 00:36:51;;;;;;;13.85;6.43;;;5.70;99.90;;;;;;5022398;28;20033;-67
2023/11/23 00:39:17;;;;;;;18.92;7.35;;;5.70;99.90;;;;;;5022248;28;20036;-67
2023/11/23 00:41:43;;;;;;;19.23;7.90;;;5.60;99.90;;;;;;5021289;28;20060;-67
2023/11/23 00:44:11;;;;;;;19.48;7.72;;;5.80;99.90;;;;;;5029796;28;20026;-67
2023/11/23 00:46:36;;;;;;;19.58;7.18;;;5.80;99.90;;;;;;5019521;28;20025;-67
2023/11/23 00:49:03;;;;;;;18.33;7.88;;;5.80;99.90;;;;;;5023942;28;20486;-67
2023/11/23 00:51:29;;;;;;;19.50;7.55;;;5.80;99.90;;;;;;5021171;28;20030;-67
2023/11/23 00:53:55;;;;;;;16.75;6.88;;;5.80;99.90;;;;;;5027458;28;20405;-67
2023/11/23 00:56:22;;;;;;;18.23;7.63;;;5.80;99.90;;;;;;5029684;28;20666;-67
2023/11/23 00:58:47;;;;;;;19.95;7.03;;;5.70;99.90;;;;;;5018966;28;20042;-67
2023/11/23 01:01:16;;;;;;;21.75;9.05;;;5.80;99.90;;;;;;5022107;28;20114;-67
2023/11/23 01:03:42;;;;;;;17.95;7.22;;;5.80;99.90;;;;;;5028428;28;20033;-67
2023/11/23 01:06:07;;;;;;;17.73;7.00;;;5.80;99.90;;;;;;5025127;28;20029;-67
2023/11/23 01:08:33;;;;;;;17.55;7.47;;;5.80;99.90;;;;;;5021294;28;20180;-67
2023/11/23 01:11:02;;;;;;;19.88;8.05;;;5.80;99.90;;;;;;5019574;28;20458;-67
2023/11/23 01:13:29;;;;;;;17.63;7.25;;;5.80;99.90;;;;;;5029699;28;20049;-67
2023/11/23 01:15:55;;;;;;;16.15;6.93;;;5.80;99.90;;;;;;5021336;28;20044;-67
2023/11/23 01:18:21;;;;;;;17.73;6.80;;;5.80;99.90;;;;;;5020618;28;20037;-67
2023/11/23 01:20:48;;;;;;;19.50;7.70;;;5.90;99.90;;;;;;5019845;28;20065;-67
2023/11/23 01:23:13;;;;;;;19.65;8.57;;;5.80;99.90;;;;;;5018092;28;20041;-67
2023/11/23 01:25:39;;;;;;;21.02;8.57;;;5.80;99.90;;;;;;5022215;28;20112;-67
2023/11/23 01:28:05;;;;;;;20.52;8.35;;;5.80;99.90;;;;;;5022440;28;20029;-67
2023/11/23 01:30:31;;;;;;;23.52;9.00;;;5.90;99.90;;;;;;5019393;28;20022;-67
2023/11/23 01:32:56;;;;;;;20.83;9.13;;;5.80;99.90;;;;;;5022420;28;20588;-67
2023/11/23 01:35:22;;;;;;;22.95;9.13;;;5.80;99.90;;;;;;5018959;28;20025;-67
2023/11/23 01:37:49;;;;;;;24.08;9.90;;;5.80;99.90;;;;;;5037725;28;20036;-67
2023/11/23 01:40:16;;;;;;;13.02;6.30;;;5.80;99.90;;;;;;5016435;28;20038;-67
2023/11/23 01:42:42;;;;;;;24.13;9.13;;;5.70;99.90;;;;;;5019458;28;20048;-67
2023/11/23 01:45:08;;;;;;;22.95;9.32;;;5.70;99.90;;;;;;5019305;28;20431;-67
2023/11/23 01:47:41;;;;;;;21.35;8.80;;;5.70;99.90;;;;;;5019045;28;20563;-67
2023/11/23 01:50:08;;;;;;;23.90;9.73;;;5.70;99.90;;;;;;5018988;28;20025;-67
2023/11/23 01:52:35;;;;;;;28.00;9.85;;;5.60;99.90;;;;;;5020657;28;20037;-67
2023/11/23 01:55:02;;;;;;;28.75;11.35;;;5.60;99.90;;;;;;5021945;28;20025;-67
2023/11/23 01:57:31;;;;;;;23.60;9.73;;;5.60;99.90;;;;;;5021197;28;20040;-67
2023/11/23 01:59:58;;;;;;;27.33;11.23;;;5.60;99.90;;;;;;5020212;28;20076;-67
2023/11/23 02:02:24;;;;;;;24.08;8.02;;;5.60;99.90;;;;;;5027316;28;20510;-67
2023/11/23 02:04:51;;;;;;;21.38;8.70;;;5.60;99.90;;;;;;5020036;28;20042;-67
2023/11/23 02:07:17;;;;;;;33.53;9.63;;;5.60;99.90;;;;;;5023747;28;20022;-67
2023/11/23 02:09:43;;;;;;;18.00;8.23;;;5.60;99.90;;;;;;5022497;28;20029;-67
2023/11/23 02:12:09;;;;;;;23.00;8.80;;;5.60;99.90;;;;;;5019132;28;20066;-67
2023/11/23 02:14:36;;;;;;;27.30;12.23;;;5.70;99.90;;;;;;5021009;28;20035;-67
2023/11/23 02:17:18;;;;;;;29.75;11.75;;;5.70;99.90;;;;;;5020968;28;20038;-67
2023/11/23 02:19:46;;;;;;;26.50;11.65;;;5.70;99.90;;;;;;5018293;28;20764;-67
2023/11/23 02:22:15;;;;;;;31.52;13.45;;;5.70;99.90;;;;;;5021457;28;20473;-67
2023/11/23 02:24:43;;;;;;;33.03;12.48;;;5.70;99.90;;;;;;5018256;28;20050;-66
2023/11/23 02:27:09;;;;;;;29.67;10.45;;;5.70;99.90;;;;;;5017398;28;20092;-66
2023/11/23 02:29:35;;;;;;;30.58;12.35;;;5.70;99.90;;;;;;5019484;28;20112;-66
2023/11/23 02:32:06;;;;;;;25.85;10.25;;;5.70;99.90;;;;;;5020128;28;20109;-66
2023/11/23 02:34:32;;;;;;;31.00;13.07;;;5.80;99.90;;;;;;5018895;28;20028;-66
2023/11/23 02:36:58;;;;;;;31.00;11.93;;;5.80;99.90;;;;;;5021904;28;20061;-66
2023/11/23 02:39:23;;;;;;;22.88;11.18;;;5.80;99.90;;;;;;5018529;28;20053;-66
2023/11/23 02:41:49;;;;;;;25.67;11.60;;;5.90;99.90;;;;;;5035882;28;20095;-66
2023/11/23 02:44:14;;;;;;;23.02;9.63;;;5.90;99.90;;;;;;5019567;28;20033;-66
2023/11/23 02:46:40;;;;;;;30.52;11.00;;;5.90;99.90;;;;;;5019044;28;20068;-66
2023/11/23 02:49:06;;;;;;;27.42;11.30;;;5.90;99.90;;;;;;5020947;28;20025;-66
2023/11/23 02:51:36;;;;;;;21.80;8.25;;;6.00;99.90;;;;;;5018167;28;20030;-66
2023/11/23 02:54:03;;;;;;;32.42;11.90;;;6.00;99.90;;;;;;5035917;28;20029;-66
2023/11/23 02:56:29;;;;;;;18.10;6.97;;;6.00;99.90;;;;;;5023996;28;20033;-66
2023/11/23 02:58:55;;;;;;;25.75;11.35;;;6.00;99.90;;;;;;5023870;28;20642;-66
2023/11/23 03:01:21;;;;;;;30.38;12.65;;;6.10;99.90;;;;;;5027815;28;20108;-66
2023/11/23 03:03:47;;;;;;;25.00;10.90;;;6.10;99.90;;;;;;5019638;28;20026;-66
2023/11/23 03:06:13;;;;;;;28.88;10.43;;;6.10;99.90;;;;;;5026917;28;20438;-66
2023/11/23 03:08:39;;;;;;;27.00;11.55;;;6.20;99.90;;;;;;5027101;28;20164;-66
2023/11/23 03:11:04;;;;;;;25.98;9.93;;;6.20;99.90;;;;;;5018777;28;20088;-66
2023/11/23 03:13:30;;;;;;;29.02;11.38;;;6.20;99.90;;;;;;5018816;28;20042;-66
2023/11/23 03:15:56;;;;;;;28.27;12.45;;;6.20;99.90;;;;;;5018120;28;20045;-66
2023/11/23 03:18:21;;;;;;;28.33;11.57;;;6.20;99.90;;;;;;5020570;28;20035;-66
2023/11/23 03:20:47;;;;;;;30.25;11.75;;;6.20;99.90;;;;;;5019055;28;20026;-66
2023/11/23 03:23:13;;;;;;;28.13;11.48;;;6.20;99.90;;;;;;5019173;28;20040;-66
2023/11/23 03:25:38;;;;;;;24.23;10.25;;;6.20;99.90;;;;;;5021425;28;20030;-66
2023/11/23 03:28:06;;;;;;;31.42;12.95;;;6.30;99.90;;;;;;5020377;28;20021;-66
2023/11/23 03:30:32;;;;;;;29.50;11.13;;;6.20;99.90;;;;;;5023788;28;20569;-66
2023/11/23 03:32:58;;;;;;;28.40;12.32;;;6.20;99.90;;;;;;5022241;28;20096;-67
2023/11/23 03:35:24;;;;;;;23.92;10.77;;;6.20;99.90;;;;;;5022456;28;20105;-67
2023/11/23 03:37:49;;;;;;;32.80;12.43;;;6.20;99.90;;;;;;5022952;28;20083;-67
2023/11/23 03:40:15;;;;;;;35.03;13.35;;;6.20;99.90;;;;;;5023826;28;20026;-68
2023/11/23 03:42:40;;;;;;;35.17;12.77;;;6.30;99.90;;;;;;5021908;28;20425;-68
2023/11/23 03:45:06;;;;;;;30.70;12.40;;;6.30;99.90;;;;;;5024158;28;20125;-68
2023/11/23 03:47:32;;;;;;;30.65;12.45;;;6.30;99.90;;;;;;5021945;28;20096;-68
2023/11/23 03:49:57;;;;;;;34.67;13.82;;;6.30;99.90;;;;;;5030005;28;20106;-68
2023/11/23 03:52:23;;;;;;;27.38;11.60;;;6.30;99.90;;;;;;5037956;28;20458;-68
2023/11/23 03:54:49;;;;;;;31.45;12.63;;;6.40;99.90;;;;;;5028707;28;20037;-68
2023/11/23 03:57:14;;;;;;;32.03;12.80;;;6.40;99.90;;;;;;5024975;28;20021;-68
2023/11/23 03:59:40;;;;;;;36.75;15.68;;;6.40;99.90;;;;;;5019888;28;20105;-68
2023/11/23 04:02:06;;;;;;;30.67;13.30;;;6.40;99.90;;;;;;5038771;28;20075;-68
2023/11/23 04:04:32;;;;;;;39.47;16.17;;;6.50;99.90;;;;;;5031376;28;20067;-68
2023/11/23 04:06:58;;;;;;;35.08;12.80;;;6.50;99.90;;;;;;5029705;28;20408;-68
2023/11/23 04:09:26;;;;;;;35.95;14.35;;;6.60;99.90;;;;;;5023298;28;20040;-68
2023/11/23 04:11:53;;;;;;;43.47;16.45;;;6.50;99.90;;;;;;5028316;28;20049;-68
2023/11/23 04:14:18;;;;;;;34.15;13.93;;;6.60;99.90;;;;;;5023514;28;20068;-68
2023/11/23 04:16:44;;;;;;;39.58;14.70;;;6.50;99.90;;;;;;5029653;28;20065;-68
2023/11/23 04:19:10;;;;;;;34.15;14.73;;;6.60;99.90;;;;;;5021867;28;20431;-68
2023/11/23 04:21:36;;;;;;;37.53;15.93;;;6.60;99.90;;;;;;5030540;28;20116;-67
2023/11/23 04:24:02;;;;;;;37.00;15.63;;;6.70;99.90;;;;;;5020676;28;20034;-67
2023/11/23 04:26:28;;;;;;;39.15;16.33;;;6.70;99.90;;;;;;5029420;28;20030;-67
2023/11/23 04:28:54;;;;;;;33.67;12.75;;;6.80;99.90;;;;;;5019891;28;20129;-67
2023/11/23 04:31:20;;;;;;;36.33;14.70;;;6.80;99.90;;;;;;5022303;28;20116;-67
2023/11/23 04:33:46;;;;;;;40.90;18.83;;;6.80;99.90;;;;;;5022618;28;20355;-67
2023/11/23 04:36:12;;;;;;;38.13;15.18;;;6.80;99.90;;;;;;5020607;28;20037;-67
2023/11/23 04:38:37;;;;;;;34.50;14.23;;;6.80;99.90;;;;;;5024119;28;20052;-67
2023/11/23 04:41:05;;;;;;;30.15;13.10;;;6.80;99.90;;;;;;5020438;28;20095;-67
2023/11/23 04:43:31;;;;;;;39.47;16.25;;;6.80;99.90;;;;;;5019417;28;20022;-65
2023/11/23 04:45:57;;;;;;;38.72;13.82;;;6.90;99.90;;;;;;5022175;28;20358;-65
2023/11/23 04:48:23;;;;;;;43.60;19.88;;;6.90;99.90;;;;;;5018453;28;20041;-65
2023/11/23 04:50:50;;;;;;;46.85;19.00;;;6.90;99.90;;;;;;5021032;28;20404;-65
2023/11/23 04:53:17;;;;;;;38.40;16.40;;;6.90;99.90;;;;;;5018838;28;20033;-65
2023/11/23 04:55:43;;;;;;;45.30;16.73;;;7.00;99.90;;;;;;5023921;28;20382;-65
2023/11/23 04:58:08;;;;;;;45.58;16.63;;;7.00;99.90;;;;;;5023349;28;20083;-65
2023/11/23 05:00:35;;;;;;;47.67;18.73;;;7.00;99.90;;;;;;5025127;28;20026;-65
2023/11/23 05:03:01;;;;;;;48.47;25.55;;;7.00;99.90;;;;;;5035143;28;20018;-65
2023/11/23 05:05:27;;;;;;;52.47;19.08;;;7.00;99.90;;;;;;5030440;28;20159;-65
2023/11/23 05:07:52;;;;;;;38.75;15.10;;;7.00;99.90;;;;;;5031951;28;20044;-65
2023/11/23 05:10:20;;;;;;;45.53;17.75;;;7.10;99.90;;;;;;5019851;28;20090;-65
2023/11/23 05:12:45;;;;;;;46.50;17.33;;;7.10;99.90;;;;;;5025723;28;20037;-65
2023/11/23 05:15:14;;;;;;;42.80;17.55;;;7.10;99.90;;;;;;5017494;28;20039;-65
2023/11/23 05:17:39;;;;;;;46.97;17.77;;;7.20;99.90;;;;;;5027203;28;20048;-65
2023/11/23 05:20:06;;;;;;;53.13;21.83;;;7.20;99.90;;;;;;5017257;28;20382;-65
2023/11/23 05:22:31;;;;;;;56.70;21.35;;;7.10;99.90;;;;;;5022666;28;20303;-65
2023/11/23 05:24:57;;;;;;;47.10;19.02;;;7.20;99.90;;;;;;5024780;28;20136;-66
2023/11/23 05:27:22;;;;;;;51.40;19.40;;;7.20;99.90;;;;;;5025453;28;20033;-65
2023/11/23 05:29:48;;;;;;;52.55;22.63;;;7.20;99.90;;;;;;5021295;28;20028;-65
2023/11/23 05:32:14;;;;;;;47.20;19.02;;;7.20;99.90;;;;;;5020396;28;20029;-65
2023/11/23 05:34:41;;;;;;;49.97;19.58;;;7.30;99.90;;;;;;5026898;28;20021;-65
2023/11/23 05:37:07;;;;;;;50.80;20.60;;;7.30;99.90;;;;;;5024525;28;20385;-66
2023/11/23 05:39:33;;;;;;;50.83;19.02;;;7.30;99.90;;;;;;5021433;28;20028;-66
2023/11/23 05:41:58;;;;;;;42.25;16.23;;;7.30;99.90;;;;;;5026466;28;20096;-66
2023/11/23 05:44:25;;;;;;;55.30;19.90;;;7.40;99.90;;;;;;5023649;28;20026;-66
2023/11/23 05:46:51;;;;;;;50.38;18.75;;;7.40;99.90;;;;;;5026060;28;20378;-66
2023/11/23 05:49:21;;;;;;;46.80;18.63;;;7.40;99.90;;;;;;5024136;28;20037;-66
2023/11/23 05:51:47;;;;;;;40.88;17.23;;;7.50;99.90;;;;;;5022998;28;20029;-66
2023/11/23 05:54:13;;;;;;;46.63;18.15;;;7.50;99.90;;;;;;5013295;28;20171;-66
2023/11/23 05:56:38;;;;;;;39.47;16.17;;;7.60;99.90;;;;;;5024070;28;20108;-67
2023/11/23 05:59:04;;;;;;;46.85;19.90;;;7.60;99.90;;;;;;5017952;28;20561;-66
2023/11/23 06:01:30;;;;;;;45.03;16.75;;;7.60;99.90;;;;;;5014454;28;20038;-66
2023/11/23 06:03:56;;;;;;;45.83;17.75;;;7.70;99.90;;;;;;5024572;28;20048;-66
2023/11/23 06:06:23;;;;;;;45.03;16.80;;;7.70;99.90;;;;;;5041107;28;20026;-66
2023/11/23 06:08:50;;;;;;;45.05;19.35;;;7.80;99.90;;;;;;5024798;28;20029;-66
2023/11/23 06:11:16;;;;;;;48.25;19.70;;;7.80;99.90;;;;;;5022082;28;20091;-66
2023/11/23 06:13:48;;;;;;;48.75;19.58;;;7.80;99.90;;;;;;5021389;28;20065;-67
2023/11/23 06:16:14;;;;;;;48.60;18.67;;;7.80;99.90;;;;;;5017258;28;20428;-66
2023/11/23 06:18:40;;;;;;;41.05;18.75;;;7.90;99.90;;;;;;5023554;28;20500;-66
2023/11/23 06:21:08;;;;;;;31.75;14.30;;;7.90;99.90;;;;;;5026114;28;20311;-66
2023/11/23 06:23:34;;;;;;;40.60;16.75;;;7.90;99.90;;;;;;5020989;28;20040;-66
2023/11/23 06:26:00;;;;;;;38.15;17.08;;;8.00;99.90;;;;;;5020360;28;20025;-66
2023/11/23 06:28:26;;;;;;;44.08;17.67;;;8.00;99.90;;;;;;5023546;28;20078;-66
2023/11/23 06:30:52;;;;;;;40.13;17.13;;;8.00;99.90;;;;;;5018762;28;20366;-66
2023/11/23 06:33:18;;;;;;;37.25;16.35;;;8.00;99.90;;;;;;5022014;28;20095;-66
2023/11/23 06:35:43;;;;;;;35.28;15.07;;;8.10;99.90;;;;;;5012206;28;20029;-66
2023/11/23 06:38:09;;;;;;;39.88;15.93;;;8.10;99.90;;;;;;5020570;28;20425;-66
2023/11/23 06:40:35;;;;;;;41.10;19.52;;;8.10;99.90;;;;;;5019386;28;20021;-66
2023/11/23 06:43:01;;;;;;;41.00;15.63;;;8.20;99.90;;;;;;5022054;28;20018;-66
2023/11/23 06:45:27;;;;;;;36.42;15.18;;;8.20;99.90;;;;;;5019464;28;20030;-66
2023/11/23 06:47:52;;;;;;;42.83;16.23;;;8.20;99.90;;;;;;5020793;28;20025;-66
2023/11/23 06:50:18;;;;;;;31.75;12.38;;;8.20;99.90;;;;;;5019563;28;20044;-65
2023/11/23 06:52:45;;;;;;;37.78;13.02;;;8.30;99.90;;;;;;5039540;28;20165;-65
2023/11/23 06:55:14;;;;;;;45.58;16.00;;;8.30;99.90;;;;;;5019118;28;20523;-66
2023/11/23 06:57:46;;;;;;;39.15;16.30;;;8.30;99.90;;;;;;5023627;28;20026;-66
2023/11/23 07:00:25;;;;;;;38.88;17.70;;;8.30;99.90;;;;;;5019008;28;20029;-66
2023/11/23 07:02:56;;;;;;;37.20;15.65;;;8.30;99.90;;;;;;5014772;28;20018;-67
2023/11/23 07:05:26;;;;;;;29.38;13.35;;;8.40;99.90;;;;;;5024279;28;20040;-68
2023/11/23 07:07:53;;;;;;;42.30;16.00;;;8.30;99.90;;;;;;5028469;28;20426;-68
2023/11/23 07:10:19;;;;;;;36.22;15.32;;;8.30;99.90;;;;;;5025744;28;20089;-68
2023/11/23 07:12:46;;;;;;;39.15;17.02;;;8.30;99.90;;;;;;5025327;28;20118;-68
2023/11/23 07:15:12;;;;;;;38.20;17.20;;;8.40;99.90;;;;;;5030394;28;20132;-68
2023/11/23 07:17:42;;;;;;;37.20;15.55;;;8.30;99.90;;;;;;5023311;28;20469;-67
2023/11/23 07:20:11;;;;;;;39.40;17.85;;;8.40;99.90;;;;;;5022810;28;20041;-68
2023/11/23 07:22:40;;;;;;;38.58;20.00;;;8.40;99.90;;;;;;5028288;28;20072;-68
2023/11/23 07:25:09;;;;;;;38.58;15.95;;;8.40;99.90;;;;;;5026661;28;20022;-68
2023/11/23 07:27:36;;;;;;;44.40;18.50;;;8.40;99.90;;;;;;5022189;28;20163;-68
2023/11/23 07:30:05;;;;;;;43.08;18.50;;;8.40;99.90;;;;;;5027337;28;20029;-68
2023/11/23 07:32:31;;;;;;;39.13;16.60;;;8.50;99.90;;;;;;5018392;28;20092;-68
2023/11/23 07:34:57;;;;;;;43.65;18.73;;;8.50;99.90;;;;;;5022224;28;20060;-68
2023/11/23 07:37:22;;;;;;;34.80;15.50;;;8.40;99.90;;;;;;5019706;28;20105;-68
2023/11/23 07:39:49;;;;;;;35.88;14.57;;;8.50;99.90;;;;;;5020780;28;20021;-68
2023/11/23 07:42:15;;;;;;;40.10;17.02;;;8.50;99.90;;;;;;5021186;28;20013;-68
2023/11/23 07:44:43;;;;;;;44.25;18.73;;;8.50;99.90;;;;;;5018999;28;20048;-68
2023/11/23 07:47:11;;;;;;;44.65;19.83;;;8.50;99.90;;;;;;5015780;28;20034;-68
2023/11/23 07:49:37;;;;;;;36.72;16.67;;;8.50;99.90;;;;;;5028354;28;20033;-68
2023/11/23 07:52:02;;;;;;;32.60;13.45;;;8.50;99.90;;;;;;5019999;28;20373;-68
2023/11/23 07:54:28;;;;;;;42.38;18.45;;;8.60;99.90;;;;;;5025229;28;20076;-68
2023/11/23 07:56:54;;;;;;;43.80;18.95;;;8.70;99.90;;;;;;5028617;28;20044;-68
2023/11/23 07:59:19;;;;;;;44.45;20.52;;;8.60;99.90;;;;;;5025825;28;20109;-68
2023/11/23 08:01:45;;;;;;;46.90;20.05;;;8.60;99.90;;;;;;5028940;28;20083;-68
2023/11/23 08:04:11;;;;;;;40.28;17.40;;;8.60;99.90;;;;;;5030624;28;20036;-68
2023/11/23 08:06:38;;;;;;;45.88;17.55;;;8.60;99.90;;;;;;5030656;28;20171;-68
2023/11/23 08:09:06;;;;;;;36.85;14.63;;;8.60;99.90;;;;;;5038449;28;20448;-68
2023/11/23 08:11:32;;;;;;;36.28;16.05;;;8.60;99.90;;;;;;5025685;28;20460;-68
2023/11/23 08:13:58;;;;;;;38.60;16.10;;;8.70;99.90;;;;;;5028138;28;20072;-66
2023/11/23 08:16:23;;;;;;;47.35;18.52;;;8.70;99.90;;;;;;5023975;28;20041;-66
2023/11/23 08:18:49;;;;;;;34.13;15.10;;;8.70;99.90;;;;;;5024021;28;20040;-66
2023/11/23 08:21:15;;;;;;;29.00;12.75;;;8.70;99.90;;;;;;5025075;28;20068;-66
2023/11/23 08:23:42;;;;;;;42.55;18.50;;;8.70;99.90;;;;;;5023809;28;20482;-66
2023/11/23 08:26:10;;;;;;;40.55;16.48;;;8.70;99.90;;;;;;5022662;28;20041;-66
2023/11/23 08:28:36;;;;;;;32.25;14.18;;;8.70;99.90;;;;;;5023295;28;20480;-66
2023/11/23 08:31:02;;;;;;;33.33;15.35;;;8.80;99.90;;;;;;5024234;28;20079;-66
2023/11/23 08:33:28;;;;;;;47.80;16.95;;;8.80;99.90;;;;;;5027706;28;20037;-66
2023/11/23 08:35:55;;;;;;;41.95;17.80;;;8.90;99.90;;;;;;5025832;28;20029;-66
2023/11/23 08:38:21;;;;;;;40.28;17.40;;;8.80;99.90;;;;;;5024070;28;20109;-66
2023/11/23 08:40:46;;;;;;;34.72;14.77;;;8.80;99.90;;;;;;5027865;28;20036;-66
2023/11/23 08:43:12;;;;;;;35.95;14.25;;;8.80;99.90;;;;;;5026092;28;20084;-66
2023/11/23 08:45:38;;;;;;;34.83;15.63;;;8.90;99.90;;;;;;5025500;28;20029;-66
2023/11/23 08:48:04;;;;;;;36.08;14.93;;;8.90;99.90;;;;;;5037352;28;20079;-66
2023/11/23 08:50:30;;;;;;;26.05;13.70;;;8.90;99.90;;;;;;5024251;28;20029;-66
2023/11/23 08:52:59;;;;;;;34.33;16.65;;;8.90;99.90;;;;;;5025516;28;20033;-66
2023/11/23 08:55:24;;;;;;;31.30;12.98;;;8.90;99.90;;;;;;5023793;28;20509;-66
2023/11/23 08:57:51;;;;;;;33.70;14.70;;;8.90;99.90;;;;;;5036335;28;20086;-66
2023/11/23 09:00:23;;;;;;;40.08;16.55;;;8.90;99.90;;;;;;5025087;28;20510;-66
2023/11/23 09:02:50;;;;;;;36.05;20.42;;;9.00;99.90;;;;;;5025141;28;20029;-66
2023/11/23 09:05:16;;;;;;;29.42;13.55;;;8.90;99.90;;;;;;5024080;28;20369;-66
2023/11/23 09:07:42;;;;;;;35.65;15.52;;;9.00;99.90;;;;;;5027369;28;20500;-66
2023/11/23 09:10:09;;;;;;;34.85;13.85;;;9.00;99.90;;;;;;5025484;28;20147;-66
2023/11/23 09:12:36;;;;;;;33.30;14.07;;;9.00;99.90;;;;;;5025962;28;20038;-66
2023/11/23 09:15:04;;;;;;;33.20;15.75;;;9.00;99.90;;;;;;5028681;28;20417;-66
2023/11/23 09:17:33;;;;;;;34.53;16.13;;;9.00;99.90;;;;;;5026201;28;20041;-66
2023/11/23 09:19:58;;;;;;;33.55;14.40;;;9.00;99.90;;;;;;5029030;28;20128;-66
2023/11/23 09:22:24;;;;;;;32.30;16.85;;;9.00;99.90;;;;;;5022989;28;20538;-67
2023/11/23 09:24:51;;;;;;;26.67;11.48;;;9.10;99.90;;;;;;5023981;28;20033;-67
2023/11/23 09:27:16;;;;;;;34.50;15.18;;;9.00;99.90;;;;;;5026658;28;20029;-67
2023/11/23 09:29:42;;;;;;;30.00;14.98;;;9.00;99.90;;;;;;5025311;28;20026;-67
2023/11/23 09:32:09;;;;;;;35.40;16.45;;;9.10;99.90;;;;;;5018526;28;20033;-67
2023/11/23 09:34:34;;;;;;;35.50;18.08;;;9.10;99.90;;;;;;5022215;28;20032;-67
2023/11/23 09:37:02;;;;;;;35.70;17.88;;;9.10;99.90;;;;;;5024876;28;20021;-68
2023/11/23 09:39:28;;;;;;;32.85;14.38;;;9.10;99.90;;;;;;5036872;28;20484;-68
2023/11/23 09:42:03;;;;;;;30.65;15.25;;;9.10;99.90;;;;;;5028750;28;20014;-68
2023/11/23 09:44:29;;;;;;;32.83;16.08;;;9.20;99.90;;;;;;5021881;28;20028;-68
2023/11/23 09:46:56;;;;;;;32.97;14.57;;;9.10;99.90;;;;;;5023029;28;20025;-68
2023/11/23 09:49:23;;;;;;;29.88;13.32;;;9.10;99.90;;;;;;5025247;28;20093;-68
2023/11/23 09:51:51;;;;;;;34.63;15.68;;;9.00;99.90;;;;;;5028364;28;20903;-68
2023/11/23 09:54:23;;;;;;;30.50;13.45;;;9.20;99.90;;;;;;5027313;28;20033;-68
2023/11/23 09:56:51;;;;;;;31.75;14.40;;;9.20;99.90;;;;;;5020611;28;20021;-68
2023/11/23 09:59:17;;;;;;;32.97;14.02;;;9.20;99.90;;;;;;5023519;28;20029;-67
2023/11/23 10:01:43;;;;;;;34.70;17.70;;;9.20;99.90;;;;;;5022765;28;20048;-67
2023/11/23 10:04:09;;;;;;;31.75;14.55;;;9.20;99.90;;;;;;5024345;28;20037;-67
2023/11/23 10:06:36;;;;;;;31.85;15.90;;;9.20;99.90;;;;;;5021461;28;20096;-67
2023/11/23 10:09:02;;;;;;;32.95;14.40;;;9.20;99.90;;;;;;5026926;28;20112;-67
2023/11/23 10:11:28;;;;;;;28.85;13.18;;;9.30;99.90;;;;;;5036990;28;20132;-67
2023/11/23 10:13:54;;;;;;;30.85;13.95;;;9.30;99.90;;;;;;5025997;28;20144;-67
2023/11/23 10:16:20;;;;;;;29.42;14.48;;;9.30;99.90;;;;;;5022720;28;20152;-67
2023/11/23 10:18:47;;;;;;;30.75;12.60;;;9.30;99.90;;;;;;5023925;28;20049;-67
2023/11/23 10:21:13;;;;;;;32.28;13.75;;;9.40;99.90;;;;;;5023922;28;20217;-67
2023/11/23 10:23:43;;;;;;;32.55;14.02;;;9.30;99.90;;;;;;5019871;28;20544;-67
2023/11/23 10:26:09;;;;;;;29.77;14.40;;;9.40;99.90;;;;;;5020133;28;20017;-67
2023/11/23 10:28:36;;;;;;;28.42;14.68;;;9.30;99.90;;;;;;5026673;28;20087;-67
2023/11/23 10:31:05;;;;;;;30.10;12.50;;;9.40;99.90;;;;;;5024023;28;20513;-68
2023/11/23 10:33:35;;;;;;;29.80;14.13;;;9.40;99.90;;;;;;5031862;28;20026;-68
2023/11/23 10:36:05;;;;;;;26.75;13.25;;;9.40;99.90;;;;;;5025994;28;20029;-68
2023/11/23 10:38:38;;;;;;;30.85;14.45;;;9.40;99.90;;;;;;5021832;28;20100;-68
2023/11/23 10:41:07;;;;;;;28.10;13.10;;;9.50;99.90;;;;;;5026016;28;20025;-68
2023/11/23 10:43:37;;;;;;;26.15;11.68;;;9.50;99.90;;;;;;5024869;28;20085;-68
2023/11/23 10:46:09;;;;;;;30.38;14.50;;;9.50;99.90;;;;;;5024208;28;20061;-68
2023/11/23 10:48:36;;;;;;;31.63;13.90;;;9.40;99.90;;;;;;5026325;28;20409;-68
2023/11/23 10:51:04;;;;;;;35.60;16.80;;;9.40;99.90;;;;;;5024478;28;20100;-67
2023/11/23 10:53:32;;;;;;;34.08;18.63;;;9.50;99.90;;;;;;5023296;28;20041;-67
2023/11/23 10:56:14;;;;;;;33.10;14.10;;;9.40;99.90;;;;;;5026133;28;20018;-67
2023/11/23 10:58:46;;;;;;;34.20;14.98;;;9.40;99.90;;;;;;5019138;28;20026;-67
2023/11/23 11:01:17;;;;;;;32.45;13.57;;;9.50;99.90;;;;;;5020976;28;20048;-68
2023/11/23 11:03:44;;;;;;;31.35;13.63;;;9.50;99.90;;;;;;5027966;28;20022;-67
2023/11/23 11:06:13;;;;;;;29.08;13.30;;;9.50;99.90;;;;;;5025811;28;20021;-67
2023/11/23 11:08:44;;;;;;;29.07;15.20;;;9.50;99.90;;;;;;5023080;28;20116;-67
2023/11/23 11:11:15;;;;;;;31.05;14.30;;;9.50;99.90;;;;;;5019159;28;20013;-67
2023/11/23 11:13:45;;;;;;;30.45;12.75;;;9.50;99.90;;;;;;5020989;28;20045;-68
2023/11/23 11:16:15;;;;;;;24.50;11.68;;;9.60;99.90;;;;;;5020861;28;20018;-67
2023/11/23 11:18:50;;;;;;;;;;;9.60;99.90;;;;;;5022607;28;20045;-68
2023/11/23 11:21:20;;;;;;;23.52;11.80;;;9.60;99.90;;;;;;5022655;28;19913;-68
2023/11/23 11:23:51;;;;;;;31.50;14.68;;;9.60;99.90;;;;;;5018070;28;20022;-68
2023/11/23 11:26:24;;;;;;;31.50;13.88;;;9.60;99.90;;;;;;5024026;28;20046;-68
2023/11/23 11:28:54;;;;;;;28.35;13.02;;;9.60;99.90;;;;;;5019456;28;20132;-68
2023/11/23 11:31:33;;;;;;;;;;;9.60;99.90;;;;;;5017579;28;20548;-68
2023/11/23 11:34:01;;;;;;;24.02;12.55;;;9.60;99.90;;;;;;5020867;28;19909;-68
2023/11/23 11:36:30;;;;;;;25.17;11.32;;;9.60;99.90;;;;;;5021084;28;20580;-68
2023/11/23 11:39:05;;;;;;;27.95;10.18;;;9.70;99.90;;;;;;5021069;28;20485;-68
2023/11/23 11:41:34;;;;;;;28.35;12.68;;;9.70;99.90;;;;;;5018837;28;20830;-68
2023/11/23 11:44:01;;;;;;;23.30;11.52;;;9.80;99.90;;;;;;5018279;28;20022;-65
2023/11/23 11:46:30;;;;;;;30.52;11.38;;;9.70;99.90;;;;;;5022773;28;20038;-66
2023/11/23 11:48:59;;;;;;;24.50;11.60;;;9.80;99.90;;;;;;5022505;28;20476;-65
2023/11/23 11:51:29;;;;;;;26.17;11.97;;;9.60;99.90;;;;;;5023259;28;20064;-65
2023/11/23 11:53:56;;;;;;;22.33;8.75;;;9.80;99.90;;;;;;5024013;28;20055;-65
2023/11/23 11:56:24;;;;;;;23.50;10.85;;;9.90;99.90;;;;;;5027688;28;20473;-65
2023/11/23 11:58:50;;;;;;;28.65;12.15;;;9.90;99.90;;;;;;5023471;28;20037;-65
2023/11/23 12:01:16;;;;;;;22.77;10.07;;;9.90;99.90;;;;;;5026029;28;20032;-66
2023/11/23 12:03:42;;;;;;;20.33;10.18;;;9.90;99.90;;;;;;5020298;28;20548;-66
2023/11/23 12:06:09;;;;;;;26.52;12.00;;;9.90;99.90;;;;;;5025998;28;20037;-65
2023/11/23 12:08:35;;;;;;;20.55;9.27;;;10.00;99.90;;;;;;5026582;28;20036;-65
2023/11/23 12:11:01;;;;;;;21.83;10.60;;;9.90;99.90;;;;;;5026100;28;20132;-65
2023/11/23 12:13:28;;;;;;;20.20;9.43;;;10.00;99.90;;;;;;5025349;28;20057;-65
2023/11/23 12:15:54;;;;;;;21.33;10.07;;;10.10;99.90;;;;;;5024382;28;20026;-67
2023/11/23 12:18:30;;;;;;;24.33;9.15;;;10.00;99.90;;;;;;5026806;28;20149;-66
2023/11/23 12:20:56;;;;;;;20.00;9.10;;;10.00;99.90;;;;;;5024215;28;20025;-66
2023/11/23 12:23:22;;;;;;;20.90;11.20;;;;;;;;;;5022669;28;20048;-66
2023/11/23 12:25:48;;;;;;;22.75;9.93;;;10.10;99.90;;;;;;5022151;28;20101;-66
2023/11/23 12:28:17;;;;;;;17.23;9.80;;;10.10;99.90;;;;;;5029030;28;20029;-66
2023/11/23 12:30:45;;;;;;;18.20;7.65;;;10.30;99.90;;;;;;5026655;28;20026;-66
2023/11/23 12:33:12;;;;;;;21.15;9.75;;;10.20;99.90;;;;;;5024367;28;20033;-65
2023/11/23 12:35:38;;;;;;;22.02;8.50;;;10.10;99.90;;;;;;5027935;28;20385;-65
2023/11/23 12:38:05;;;;;;;18.25;9.93;;;10.10;99.90;;;;;;5037487;28;20056;-65